Time;durP1;ratioP1;P1;durP2;ratioP2;P2;SDS_P1;SDS_P2;PMS_P1;PMS_P2;Temp;Humidity;BMP_temperature;BMP_pressure;BME280_temperature;BME280_humidity;BME280_pressure;Samples;Min_cycle;Max_cycle;Signal;HPM_P1;HPM_P2
2020/12/03 00:01:20;;;;;;;51.77;23.50;;;-2.00;99.90;;;;;;5207170;28;20237;-76
2020/12/03 00:03:55;;;;;;;51.97;23.37;;;-2.00;99.90;;;;;;5206967;28;20209;-72
2020/12/03 00:06:32;;;;;;;50.87;23.73;;;-2.00;99.90;;;;;;5207603;28;20608;-74
2020/12/03 00:09:08;;;;;;;45.23;22.63;;;-2.00;99.90;;;;;;5207346;28;20219;-73
2020/12/03 00:11:43;;;;;;;47.23;23.13;;;-2.00;99.90;;;;;;5208346;28;20205;-76
2020/12/03 00:14:17;;;;;;;54.10;24.20;;;-2.00;99.90;;;;;;5208084;28;20222;-73
2020/12/03 00:16:49;;;;;;;48.57;22.50;;;-2.00;99.90;;;;;;5253917;28;20198;-71
2020/12/03 00:19:24;;;;;;;50.30;22.97;;;-2.00;99.90;;;;;;5271637;28;20195;-72
2020/12/03 00:22:00;;;;;;;49.83;23.93;;;-2.00;99.90;;;;;;5271407;28;20196;-69
2020/12/03 00:24:32;;;;;;;41.97;22.87;;;-2.00;99.90;;;;;;5271391;28;20194;-67
2020/12/03 00:27:12;;;;;;;47.83;22.07;;;-2.00;99.90;;;;;;5271251;28;20195;-67
2020/12/03 00:29:44;;;;;;;43.77;22.57;;;-2.00;99.90;;;;;;5271349;28;20552;-68
2020/12/03 00:32:15;;;;;;;46.13;22.03;;;-2.00;99.90;;;;;;5270933;28;20186;-66
2020/12/03 00:34:46;;;;;;;46.07;22.67;;;-2.00;99.90;;;;;;5270827;28;20222;-66
2020/12/03 00:37:18;;;;;;;49.10;23.63;;;-2.00;99.90;;;;;;5270588;28;20203;-67
2020/12/03 00:39:49;;;;;;;49.30;22.93;;;-2.00;99.90;;;;;;5270997;28;20262;-67
2020/12/03 00:42:21;;;;;;;50.03;23.53;;;-2.00;99.90;;;;;;5270433;28;20211;-69
2020/12/03 00:44:52;;;;;;;44.83;22.07;;;-2.00;99.90;;;;;;5270660;28;20257;-67
2020/12/03 00:47:24;;;;;;;44.93;22.37;;;-2.00;99.90;;;;;;5270689;28;20195;-68
2020/12/03 00:49:56;;;;;;;46.97;22.10;;;-2.00;99.90;;;;;;5270265;28;20236;-68
2020/12/03 00:52:28;;;;;;;47.17;24.00;;;-2.00;99.90;;;;;;5270642;28;20195;-73
2020/12/03 00:54:59;;;;;;;47.60;23.87;;;-2.00;99.90;;;;;;5270502;28;20239;-68
2020/12/03 00:57:31;;;;;;;51.47;23.90;;;-2.00;99.90;;;;;;5270217;28;20194;-73
2020/12/03 01:00:08;;;;;;;50.70;24.80;;;-2.00;99.90;;;;;;5270467;28;20200;-75
2020/12/03 01:02:40;;;;;;;49.80;23.13;;;-2.00;99.90;;;;;;5269990;28;20620;-72
2020/12/03 01:05:13;;;;;;;44.60;22.07;;;-2.00;99.90;;;;;;5270214;28;20562;-75
2020/12/03 01:07:45;;;;;;;46.23;22.43;;;-2.00;99.90;;;;;;5269836;28;20555;-72
2020/12/03 01:10:22;;;;;;;46.97;23.63;;;-2.00;99.90;;;;;;5270164;28;20201;-75
2020/12/03 01:12:54;;;;;;;47.57;22.77;;;-2.00;99.90;;;;;;5269824;28;20196;-73
2020/12/03 01:15:25;;;;;;;51.17;23.73;;;-2.00;99.90;;;;;;5269658;28;20213;-74
2020/12/03 01:17:57;;;;;;;49.20;23.73;;;-2.00;99.90;;;;;;5269725;28;20185;-72
2020/12/03 01:20:30;;;;;;;46.80;23.13;;;-2.00;99.90;;;;;;5269820;28;20201;-71
2020/12/03 01:23:01;;;;;;;49.77;23.57;;;-2.00;99.90;;;;;;5269856;28;20216;-73
2020/12/03 01:25:35;;;;;;;48.70;23.43;;;-2.00;99.90;;;;;;5269854;28;20198;-74
2020/12/03 01:28:06;;;;;;;51.27;25.47;;;-2.00;99.90;;;;;;5269640;28;20200;-72
2020/12/03 01:30:39;;;;;;;50.90;24.10;;;-2.00;99.90;;;;;;5269813;28;20196;-72
2020/12/03 01:33:10;;;;;;;47.70;23.27;;;-2.00;99.90;;;;;;5269505;28;20205;-73
2020/12/03 01:35:42;;;;;;;50.90;23.13;;;-2.00;99.90;;;;;;5251724;28;20217;-73
2020/12/03 01:38:13;;;;;;;49.23;23.73;;;-2.00;99.90;;;;;;5269808;28;20544;-72
2020/12/03 01:40:50;;;;;;;48.70;23.50;;;-2.00;99.90;;;;;;5251727;28;20270;-71
2020/12/03 01:43:21;;;;;;;45.40;22.93;;;-2.00;99.90;;;;;;5269539;28;20198;-73
2020/12/03 01:45:58;;;;;;;49.13;23.80;;;-2.00;99.90;;;;;;5269252;28;20206;-73
2020/12/03 01:48:51;;;;;;;48.33;22.33;;;-1.90;99.90;;;;;;5269519;28;20197;-73
2020/12/03 01:51:33;;;;;;;45.57;22.00;;;-1.90;99.90;;;;;;5269256;28;20189;-72
2020/12/03 01:54:11;;;;;;;50.10;22.23;;;-1.90;99.90;;;;;;5268704;28;20226;-73
2020/12/03 01:56:52;;;;;;;49.37;23.63;;;-1.90;99.90;;;;;;5269234;28;20226;-73
2020/12/03 02:03:19;;;;;;;46.13;22.37;;;-1.90;99.90;;;;;;5268435;28;20293;-74
2020/12/03 02:05:51;;;;;;;53.13;24.10;;;-1.90;99.90;;;;;;5268743;28;20195;-74
2020/12/03 02:08:25;;;;;;;49.30;21.73;;;-1.90;99.90;;;;;;5269048;28;20195;-73
2020/12/03 02:10:57;;;;;;;51.67;24.93;;;-1.90;99.90;;;;;;5269450;28;20210;-73
2020/12/03 02:13:28;;;;;;;49.37;23.27;;;-1.90;99.90;;;;;;5269296;28;20641;-74
2020/12/03 02:16:00;;;;;;;49.37;23.23;;;-1.90;99.90;;;;;;5268724;28;20223;-74
2020/12/03 02:18:31;;;;;;;47.47;23.50;;;-1.90;99.90;;;;;;5268936;28;20194;-74
2020/12/03 02:21:03;;;;;;;46.13;23.43;;;-1.90;99.90;;;;;;5268823;28;20195;-73
2020/12/03 02:23:34;;;;;;;49.80;23.27;;;-1.90;99.90;;;;;;5269057;28;20214;-73
2020/12/03 02:26:09;;;;;;;48.33;24.77;;;-1.90;99.90;;;;;;5268861;28;20191;-74
2020/12/03 02:28:40;;;;;;;48.13;24.47;;;-1.90;99.90;;;;;;5269207;28;20560;-74
2020/12/03 02:31:12;;;;;;;55.83;26.13;;;-1.90;99.90;;;;;;5269157;28;20687;-74
2020/12/03 02:33:43;;;;;;;45.90;22.53;;;-1.80;99.90;;;;;;5269183;28;20193;-73
2020/12/03 02:36:15;;;;;;;49.27;23.87;;;-1.90;99.90;;;;;;5270007;28;20195;-72
2020/12/03 02:38:47;;;;;;;51.60;24.93;;;-1.90;99.90;;;;;;5271363;28;20563;-74
2020/12/03 02:41:18;;;;;;;49.33;23.93;;;-1.80;99.90;;;;;;5270272;28;20191;-76
2020/12/03 02:43:49;;;;;;;50.00;23.80;;;-1.80;99.90;;;;;;5268583;28;20195;-66
2020/12/03 02:46:21;;;;;;;50.60;24.80;;;-1.80;99.90;;;;;;5268728;28;20199;-67
2020/12/03 02:48:52;;;;;;;54.47;24.73;;;-1.80;99.90;;;;;;5268889;28;20572;-67
2020/12/03 02:51:25;;;;;;;48.80;24.83;;;-1.80;99.90;;;;;;5268998;28;20295;-68
2020/12/03 02:53:56;;;;;;;50.97;24.90;;;-1.80;99.90;;;;;;5268711;28;20202;-65
2020/12/03 02:56:27;;;;;;;52.30;25.13;;;-1.80;99.90;;;;;;5268489;28;20199;-67
2020/12/03 02:58:59;;;;;;;57.50;25.60;;;-1.80;99.90;;;;;;5268618;28;20201;-67
2020/12/03 03:01:30;;;;;;;48.00;25.23;;;-1.80;99.90;;;;;;5268241;28;20196;-68
2020/12/03 03:04:05;;;;;;;47.50;24.77;;;-1.80;99.90;;;;;;5268709;28;20184;-68
2020/12/03 03:06:36;;;;;;;56.07;26.87;;;-1.70;99.90;;;;;;5272399;28;20375;-67
2020/12/03 03:09:08;;;;;;;53.37;25.03;;;-1.70;99.90;;;;;;5272328;28;20194;-71
2020/12/03 03:11:39;;;;;;;48.10;24.13;;;-1.80;99.90;;;;;;5272363;28;20202;-73
2020/12/03 03:14:10;;;;;;;50.30;25.53;;;-1.70;99.90;;;;;;5272236;28;20219;-69
2020/12/03 03:16:42;;;;;;;54.47;25.60;;;-1.70;99.90;;;;;;5272235;28;20190;-72
2020/12/03 03:19:18;;;;;;;50.70;24.17;;;-1.70;99.90;;;;;;5272458;28;20202;-69
2020/12/03 03:21:49;;;;;;;48.83;24.47;;;-1.70;99.90;;;;;;5272257;28;20581;-73
2020/12/03 03:24:21;;;;;;;52.27;25.63;;;-1.70;99.90;;;;;;5272257;28;20199;-73
2020/12/03 03:26:52;;;;;;;54.77;26.37;;;-1.70;99.90;;;;;;5271871;28;20242;-71
2020/12/03 03:33:10;;;;;;;53.77;25.40;;;-1.70;99.90;;;;;;5271957;28;20220;-73
2020/12/03 03:35:41;;;;;;;55.00;26.73;;;-1.70;99.90;;;;;;5271919;28;20292;-73
2020/12/03 03:38:14;;;;;;;57.67;28.00;;;-1.70;99.90;;;;;;5271560;28;20195;-74
2020/12/03 03:40:45;;;;;;;55.73;27.07;;;-1.70;99.90;;;;;;5271667;28;20283;-73
2020/12/03 03:43:16;;;;;;;57.80;27.33;;;-1.70;99.90;;;;;;5271690;28;20220;-72
2020/12/03 03:49:34;;;;;;;50.07;24.83;;;-1.70;99.90;;;;;;5271627;28;20252;-73
2020/12/03 03:52:06;;;;;;;55.33;26.47;;;-1.70;99.90;;;;;;5271553;28;20190;-74
2020/12/03 03:54:37;;;;;;;55.23;26.77;;;-1.70;99.90;;;;;;5271524;28;20269;-72
2020/12/03 03:57:09;;;;;;;60.30;26.77;;;-1.70;99.90;;;;;;5253412;28;20202;-73
2020/12/03 03:59:40;;;;;;;54.53;26.47;;;-1.70;99.90;;;;;;5271603;28;20553;-73
2020/12/03 04:02:11;;;;;;;58.13;27.40;;;-1.70;99.90;;;;;;5271531;28;20235;-71
2020/12/03 04:04:43;;;;;;;55.10;26.20;;;-1.70;99.90;;;;;;5271197;28;20205;-74
2020/12/03 04:07:16;;;;;;;61.43;27.70;;;-1.70;99.90;;;;;;5271472;28;20649;-73
2020/12/03 04:09:47;;;;;;;57.63;27.10;;;-1.70;99.90;;;;;;5270986;28;20197;-74
2020/12/03 04:12:18;;;;;;;54.20;26.17;;;-1.70;99.90;;;;;;5271468;28;20192;-73
2020/12/03 04:14:50;;;;;;;56.33;26.80;;;-1.70;99.90;;;;;;5271238;28;20237;-72
2020/12/03 04:17:21;;;;;;;55.70;26.70;;;-1.70;99.90;;;;;;5270542;28;20199;-73
2020/12/03 04:19:54;;;;;;;51.73;26.57;;;-1.70;99.90;;;;;;5270889;28;20195;-72
2020/12/03 04:22:28;;;;;;;55.57;26.60;;;-1.70;99.90;;;;;;5270847;28;20186;-75
2020/12/03 04:24:59;;;;;;;49.00;26.10;;;-1.70;99.90;;;;;;5270647;28;20193;-65
2020/12/03 04:27:30;;;;;;;52.33;24.97;;;-1.70;99.90;;;;;;5271154;28;20195;-73
2020/12/03 04:30:07;;;;;;;56.57;26.80;;;-1.70;99.90;;;;;;5270785;28;20203;-74
2020/12/03 04:32:39;;;;;;;53.67;27.20;;;-1.70;99.90;;;;;;5270872;28;20247;-67
2020/12/03 04:35:11;;;;;;;57.60;26.93;;;-1.70;99.90;;;;;;5270953;28;20218;-69
2020/12/03 04:37:42;;;;;;;51.53;25.37;;;-1.70;99.90;;;;;;5270898;28;20210;-66
2020/12/03 04:40:25;;;;;;;49.53;24.57;;;-1.70;99.90;;;;;;5270780;28;20221;-68
2020/12/03 04:43:02;;;;;;;58.60;26.63;;;-1.70;99.90;;;;;;5270550;28;20197;-67
2020/12/03 04:45:43;;;;;;;51.37;25.93;;;-1.70;99.90;;;;;;5270441;28;20205;-68
2020/12/03 04:48:32;;;;;;;52.17;24.53;;;-1.70;99.90;;;;;;5270607;28;20198;-68
2020/12/03 04:51:53;;;;;;;47.00;24.50;;;-1.70;99.90;;;;;;5270640;28;20194;-70
2020/12/03 04:54:36;;;;;;;51.00;24.50;;;-1.60;99.90;;;;;;5205872;28;20688;-71
2020/12/03 04:57:42;;;;;;;49.87;24.57;;;-1.60;99.90;;;;;;5205668;28;20223;-68
2020/12/03 05:00:48;;;;;;;48.87;24.87;;;-1.60;99.90;;;;;;5144950;28;20602;-72
2020/12/03 05:03:49;;;;;;;49.47;23.43;;;-1.60;99.90;;;;;;5144452;28;20235;-73
2020/12/03 05:06:34;;;;;;;47.33;22.47;;;-1.60;99.90;;;;;;5144819;28;20200;-72
2020/12/03 05:09:29;;;;;;;52.87;23.80;;;-1.60;99.90;;;;;;5144698;28;20627;-72
2020/12/03 05:12:20;;;;;;;51.87;22.93;;;-1.60;99.90;;;;;;5144701;28;20196;-72
2020/12/03 05:19:12;;;;;;;45.80;21.23;;;-1.60;99.90;;;;;;5144725;28;20210;-72
2020/12/03 05:21:44;;;;;;;44.23;20.70;;;-1.60;99.90;;;;;;5144625;28;20211;-71
2020/12/03 05:24:15;;;;;;;41.67;22.23;;;-1.60;99.90;;;;;;5128372;28;20202;-72
2020/12/03 05:26:47;;;;;;;43.90;22.23;;;-1.70;99.90;;;;;;5144511;28;20202;-71
2020/12/03 05:29:21;;;;;;;45.50;22.30;;;-1.70;99.90;;;;;;5165934;28;20573;-69
2020/12/03 05:35:39;;;;;;;43.27;21.53;;;-1.70;99.90;;;;;;5269786;28;20261;-74
2020/12/03 05:38:23;;;;;;;42.20;21.97;;;-1.70;99.90;;;;;;5270132;28;20661;-71
2020/12/03 05:41:01;;;;;;;43.43;22.50;;;-1.70;99.90;;;;;;5270251;28;20200;-74
2020/12/03 05:43:33;;;;;;;43.53;22.60;;;-1.70;99.90;;;;;;5270260;28;20196;-76
2020/12/03 05:46:05;;;;;;;41.20;21.80;;;-1.70;99.90;;;;;;5269908;28;20187;-75
2020/12/03 05:48:36;;;;;;;48.43;23.57;;;-1.70;99.90;;;;;;5269229;28;20209;-72
2020/12/03 05:51:37;;;;;;;50.57;23.17;;;-1.70;99.90;;;;;;5269179;28;20195;-72
2020/12/03 05:54:08;;;;;;;47.93;23.17;;;-1.70;99.90;;;;;;5204620;28;20668;-74
2020/12/03 05:56:50;;;;;;;41.67;22.53;;;-1.70;99.90;;;;;;5204731;28;20682;-72
2020/12/03 05:59:24;;;;;;;46.07;22.90;;;-1.70;99.90;;;;;;5204671;28;20206;-70
2020/12/03 06:02:09;;;;;;;50.97;23.73;;;-1.70;99.90;;;;;;5204312;28;20229;-72
2020/12/03 06:04:57;;;;;;;47.57;23.53;;;-1.80;99.90;;;;;;5204454;28;20224;-71
2020/12/03 06:08:01;;;;;;;46.70;22.90;;;-1.80;99.90;;;;;;5204695;28;20206;-70
2020/12/03 06:10:50;;;;;;;44.50;21.53;;;-1.80;99.90;;;;;;5204324;28;20209;-69
2020/12/03 06:13:44;;;;;;;45.80;22.97;;;-1.80;99.90;;;;;;5204414;28;20200;-73
2020/12/03 06:20:31;;;;;;;41.10;21.20;;;-1.90;99.90;;;;;;5204609;28;20174;-71
2020/12/03 06:23:26;;;;;;;51.30;24.03;;;-1.90;99.90;;;;;;5188512;28;20293;-70
2020/12/03 06:26:19;;;;;;;47.33;23.73;;;-1.90;99.90;;;;;;5204511;28;20208;-70
2020/12/03 06:29:14;;;;;;;50.37;24.53;;;-1.90;99.90;;;;;;5204374;28;20695;-72
2020/12/03 06:32:18;;;;;;;49.53;23.83;;;-2.00;99.90;;;;;;5250558;28;20211;-75
2020/12/03 06:35:23;;;;;;;48.63;24.63;;;-2.00;99.90;;;;;;5204374;28;20352;-72
2020/12/03 06:38:23;;;;;;;47.97;23.37;;;-2.00;99.90;;;;;;5204757;28;20202;-70
2020/12/03 06:41:29;;;;;;;52.13;24.80;;;-2.00;99.90;;;;;;5207343;28;20195;-74
2020/12/03 06:44:21;;;;;;;49.77;24.20;;;-2.00;99.90;;;;;;5204600;28;20213;-72
2020/12/03 06:51:02;;;;;;;53.47;22.83;;;-2.00;99.90;;;;;;5208548;28;20209;-72
2020/12/03 06:53:52;;;;;;;49.90;22.77;;;-1.90;99.90;;;;;;5210198;28;20208;-72
2020/12/03 06:56:45;;;;;;;53.07;23.70;;;-2.00;99.90;;;;;;5209425;28;20649;-71
2020/12/03 06:59:31;;;;;;;52.60;22.60;;;-2.00;99.90;;;;;;5192166;28;20706;-68
2020/12/03 07:02:20;;;;;;;48.80;22.63;;;-2.00;99.90;;;;;;5191466;28;20226;-70
2020/12/03 07:05:25;;;;;;;45.97;22.17;;;-1.90;99.90;;;;;;5208157;28;20230;-72
2020/12/03 07:08:08;;;;;;;44.93;22.33;;;-2.00;99.90;;;;;;5207906;28;20206;-72
2020/12/03 07:11:10;;;;;;;45.77;22.13;;;-2.00;99.90;;;;;;5210150;28;20197;-69
2020/12/03 07:14:19;;;;;;;51.40;24.03;;;-1.90;99.90;;;;;;5272445;28;20199;-74
2020/12/03 07:21:04;;;;;;;45.90;22.87;;;-1.90;99.90;;;;;;5272239;28;20173;-72
2020/12/03 07:23:50;;;;;;;51.80;22.80;;;-1.90;99.90;;;;;;5272125;28;20202;-72
2020/12/03 07:26:30;;;;;;;47.73;22.50;;;-1.80;99.90;;;;;;5271873;28;20219;-72
2020/12/03 07:29:15;;;;;;;45.70;21.37;;;-1.80;99.90;;;;;;5272305;28;20223;-72
2020/12/03 07:31:50;;;;;;;46.73;22.90;;;-1.80;99.90;;;;;;5271928;28;20206;-72
2020/12/03 07:34:32;;;;;;;46.73;22.33;;;-1.80;99.90;;;;;;5254249;28;20561;-74
2020/12/03 07:37:50;;;;;;;45.30;22.70;;;-1.80;99.90;;;;;;5253766;28;20196;-74
2020/12/03 07:40:22;;;;;;;50.90;22.67;;;-1.80;99.90;;;;;;5271904;28;20681;-72
2020/12/03 07:43:27;;;;;;;42.63;21.93;;;-1.70;99.90;;;;;;5271611;28;20196;-71
2020/12/03 07:49:55;;;;;;;48.10;22.40;;;-1.70;99.90;;;;;;5271948;28;20174;-76
2020/12/03 07:52:31;;;;;;;45.70;23.03;;;-1.60;99.90;;;;;;5270529;28;20198;-76
2020/12/03 07:55:20;;;;;;;48.23;23.17;;;-1.60;99.90;;;;;;5272225;28;20639;-75
2020/12/03 07:57:53;;;;;;;47.33;22.63;;;-1.60;99.90;;;;;;5272278;28;20210;-73
2020/12/03 08:07:30;;;;;;;48.00;22.63;;;-1.50;99.90;;;;;;5273551;28;20227;-74
2020/12/03 08:10:02;;;;;;;45.00;23.03;;;-1.50;99.90;;;;;;5273215;28;20208;-71
2020/12/03 08:12:33;;;;;;;48.23;23.30;;;-1.50;99.90;;;;;;5273462;28;20200;-72
2020/12/03 08:15:06;;;;;;;48.13;24.17;;;-1.40;99.90;;;;;;5273453;28;20294;-72
2020/12/03 08:21:40;;;;;;;50.70;24.57;;;-1.50;99.90;;;;;;5273476;28;20168;-72
2020/12/03 08:24:23;;;;;;;49.37;24.70;;;-1.40;99.90;;;;;;5257724;28;20192;-73
2020/12/03 08:27:05;;;;;;;52.90;25.13;;;-1.50;99.90;;;;;;5272719;28;20246;-72
2020/12/03 08:29:37;;;;;;;50.43;25.03;;;-1.50;99.90;;;;;;5271932;28;20189;-71
2020/12/03 08:32:08;;;;;;;56.83;26.67;;;-1.50;99.90;;;;;;5271059;28;20546;-74
2020/12/03 08:34:43;;;;;;;58.80;27.20;;;-1.50;99.90;;;;;;5271120;28;20707;-72
2020/12/03 08:37:23;;;;;;;54.83;25.87;;;-1.50;99.90;;;;;;5270713;28;20184;-74
2020/12/03 08:39:56;;;;;;;55.53;26.13;;;-1.50;99.90;;;;;;5252628;28;20189;-72
2020/12/03 08:42:28;;;;;;;60.47;27.90;;;-1.50;99.90;;;;;;5270621;28;20212;-73
2020/12/03 08:45:02;;;;;;;61.57;27.07;;;-1.50;99.90;;;;;;5270320;28;20200;-73
2020/12/03 08:47:53;;;;;;;61.70;28.17;;;-1.40;99.90;;;;;;5270561;28;20192;-74
2020/12/03 08:50:25;;;;;;;56.47;27.83;;;-1.50;99.90;;;;;;5270724;28;20252;-72
2020/12/03 08:52:56;;;;;;;56.47;26.43;;;-1.50;99.90;;;;;;5267479;28;20186;-72
2020/12/03 08:55:28;;;;;;;60.77;28.43;;;-1.50;99.90;;;;;;5267067;28;20763;-73
2020/12/03 08:58:01;;;;;;;59.13;28.53;;;-1.50;99.90;;;;;;5268870;28;20194;-78
2020/12/03 09:00:39;;;;;;;61.43;27.63;;;-1.50;99.90;;;;;;5262638;28;20210;-76
2020/12/03 09:03:14;;;;;;;53.50;27.17;;;-1.50;99.90;;;;;;5281338;28;20654;-70
2020/12/03 09:05:49;;;;;;;58.67;26.83;;;-1.60;99.90;;;;;;5276720;28;20654;-77
2020/12/03 09:08:21;;;;;;;58.20;27.37;;;-1.50;99.90;;;;;;5235475;28;20526;-74
2020/12/03 09:10:57;;;;;;;62.17;29.63;;;-1.50;99.90;;;;;;5272329;28;20189;-70
2020/12/03 09:13:29;;;;;;;64.57;29.37;;;-1.50;99.90;;;;;;5271130;28;20202;-71
2020/12/03 09:19:47;;;;;;;57.93;27.53;;;-1.50;99.90;;;;;;5269426;28;20280;-69
2020/12/03 09:22:21;;;;;;;62.57;30.10;;;-1.50;99.90;;;;;;5267318;28;20198;-74
2020/12/03 09:24:53;;;;;;;67.37;29.60;;;-1.40;99.90;;;;;;5250858;28;20274;-74
2020/12/03 09:27:26;;;;;;;70.70;30.67;;;-1.40;99.90;;;;;;5251512;28;20616;-73
2020/12/03 09:30:04;;;;;;;68.13;30.77;;;-1.30;99.90;;;;;;5268728;28;20283;-74
2020/12/03 09:36:22;;;;;;;71.20;29.70;;;-1.40;99.90;;;;;;5269446;28;20623;-71
2020/12/03 09:38:58;;;;;;;71.53;31.60;;;-1.30;99.90;;;;;;5269446;28;20191;-71
2020/12/03 09:41:34;;;;;;;71.80;32.07;;;-1.30;99.90;;;;;;5252350;28;20196;-74
2020/12/03 09:44:09;;;;;;;71.20;31.17;;;-1.30;99.90;;;;;;5269422;28;20202;-72
2020/12/03 09:46:46;;;;;;;74.03;31.03;;;-1.20;99.90;;;;;;5250928;28;20200;-73
2020/12/03 09:49:18;;;;;;;76.20;32.23;;;-1.20;99.90;;;;;;5268951;28;20192;-72
2020/12/03 09:52:11;;;;;;;72.83;31.87;;;-1.20;99.90;;;;;;5253876;28;20200;-72
2020/12/03 09:54:43;;;;;;;74.07;32.90;;;-1.20;99.90;;;;;;5268084;28;20329;-72
2020/12/03 09:57:15;;;;;;;69.17;32.13;;;-1.10;99.90;;;;;;5269210;28;20218;-71
2020/12/03 09:59:46;;;;;;;76.50;34.23;;;-1.10;99.90;;;;;;5269354;28;20539;-75
2020/12/03 10:02:51;;;;;;;79.00;34.60;;;-1.00;99.90;;;;;;5269169;28;20194;-76
2020/12/03 10:05:47;;;;;;;76.10;33.77;;;-1.00;99.90;;;;;;5269180;28;20283;-71
2020/12/03 10:08:49;;;;;;;75.23;32.70;;;-0.90;99.90;;;;;;5268091;28;20199;-71
2020/12/03 10:11:21;;;;;;;74.87;31.93;;;-0.90;99.90;;;;;;5266606;28;20547;-72
2020/12/03 10:14:23;;;;;;;76.80;34.57;;;-0.90;99.90;;;;;;5266894;28;20204;-72
2020/12/03 10:20:42;;;;;;;73.50;32.50;;;-0.90;99.90;;;;;;5262401;28;20598;-72
2020/12/03 10:23:23;;;;;;;80.57;34.07;;;-0.90;99.90;;;;;;5268127;28;20192;-72
2020/12/03 10:26:10;;;;;;;80.10;34.67;;;-0.80;99.90;;;;;;5268904;28;20209;-73
2020/12/03 10:29:03;;;;;;;76.03;32.37;;;-0.80;99.90;;;;;;5269355;28;20203;-73
2020/12/03 10:31:44;;;;;;;76.13;34.20;;;-0.70;99.90;;;;;;5269760;28;20190;-73
2020/12/03 10:34:17;;;;;;;77.37;33.87;;;-0.70;99.90;;;;;;5268939;28;20195;-73
2020/12/03 10:37:01;;;;;;;76.33;35.10;;;-0.60;99.90;;;;;;5267361;28;20690;-74
2020/12/03 10:39:51;;;;;;;84.17;33.53;;;-0.60;99.90;;;;;;5268876;28;20812;-73
2020/12/03 10:42:30;;;;;;;74.80;33.77;;;-0.60;99.90;;;;;;5271173;28;20206;-74
2020/12/03 10:45:10;;;;;;;76.53;34.60;;;-0.60;99.90;;;;;;5269380;28;20195;-74
2020/12/03 10:47:52;;;;;;;86.77;37.50;;;-0.60;99.90;;;;;;5267755;28;20196;-73
2020/12/03 10:50:49;;;;;;;80.47;36.07;;;-0.50;99.90;;;;;;5267272;28;20207;-72
2020/12/03 10:53:31;;;;;;;86.63;37.63;;;-0.40;99.90;;;;;;5237120;28;20192;-70
2020/12/03 10:56:03;;;;;;;79.73;33.70;;;-0.50;99.90;;;;;;5252895;28;20227;-74
2020/12/03 10:58:59;;;;;;;80.37;35.13;;;-0.50;99.90;;;;;;5269719;28;20194;-74
2020/12/03 11:04:51;;;;;;;73.87;33.90;;;-0.50;99.90;;;;;;5269314;28;20649;-75
2020/12/03 11:07:23;;;;;;;80.27;34.67;;;-0.50;99.90;;;;;;5269591;28;20232;-76
2020/12/03 11:09:57;;;;;;;79.17;35.73;;;-0.40;99.90;;;;;;5249168;28;20185;-74
2020/12/03 11:12:30;;;;;;;84.30;36.40;;;-0.40;99.90;;;;;;5268281;28;20637;-74
2020/12/03 11:15:05;;;;;;;82.33;35.53;;;-0.40;99.90;;;;;;5270295;28;20708;-76
2020/12/03 11:21:33;;;;;;;73.60;32.20;;;-0.30;99.90;;;;;;5268164;28;20198;-73
2020/12/03 11:24:43;;;;;;;76.93;33.60;;;-0.30;99.90;;;;;;5269002;28;20189;-73
2020/12/03 11:27:19;;;;;;;79.00;34.50;;;-0.30;99.90;;;;;;5253082;28;20192;-72
2020/12/03 11:29:51;;;;;;;80.27;35.33;;;-0.30;99.90;;;;;;5272372;28;20203;-72
2020/12/03 11:32:26;;;;;;;75.57;34.37;;;-0.30;99.90;;;;;;5253585;28;20246;-76
2020/12/03 11:34:58;;;;;;;72.20;34.37;;;-0.30;99.90;;;;;;5273001;28;20299;-72
2020/12/03 11:37:30;;;;;;;72.90;32.37;;;-0.30;99.90;;;;;;5252306;28;20228;-73
2020/12/03 11:40:06;;;;;;;69.03;34.27;;;-0.20;99.90;;;;;;5274303;28;20214;-75
2020/12/03 11:50:54;;;;;;;69.00;32.30;;;-0.20;99.90;;;;;;5208185;28;20212;-69
2020/12/03 11:53:30;;;;;;;66.90;31.60;;;-0.20;99.90;;;;;;5192923;28;20220;-77
2020/12/03 11:56:02;;;;;;;70.77;33.70;;;-0.10;99.90;;;;;;5211059;28;20640;-60
2020/12/03 11:58:33;;;;;;;70.50;34.10;;;-0.10;99.90;;;;;;5211645;28;20200;-71
2020/12/03 12:01:10;;;;;;;69.00;32.17;;;-0.10;99.90;;;;;;5208190;28;20623;-73
2020/12/03 12:03:45;;;;;;;71.00;34.07;;;0.00;99.90;;;;;;5196429;28;20292;-72
2020/12/03 12:06:44;;;;;;;67.17;33.27;;;0.00;99.90;;;;;;5207561;28;20638;-72
2020/12/03 12:11:45;;;;;;;73.77;33.90;;;0.00;99.90;;;;;;5207014;28;20295;-71
2020/12/03 12:14:17;;;;;;;69.20;32.27;;;0.00;99.90;;;;;;5206814;28;20281;-71
2020/12/03 12:16:49;;;;;;;69.87;32.33;;;0.00;99.90;;;;;;5206908;28;20241;-74
2020/12/03 12:19:23;;;;;;;67.10;30.80;;;0.00;99.90;;;;;;5191490;28;20212;-74
2020/12/03 12:21:56;;;;;;;60.37;29.40;;;0.10;99.90;;;;;;5223989;28;20231;-73
2020/12/03 12:24:28;;;;;;;67.27;30.90;;;0.00;99.90;;;;;;5272717;28;20202;-73
2020/12/03 12:26:59;;;;;;;65.20;30.30;;;0.00;99.90;;;;;;5272397;28;20188;-71
2020/12/03 12:29:31;;;;;;;61.07;29.60;;;0.00;99.90;;;;;;5270641;28;20260;-73
2020/12/03 12:32:04;;;;;;;64.93;30.87;;;0.00;99.90;;;;;;5270355;28;20188;-73
2020/12/03 12:34:35;;;;;;;69.97;33.03;;;0.00;99.90;;;;;;5271869;28;20203;-73
2020/12/03 12:37:07;;;;;;;64.27;31.07;;;0.00;99.90;;;;;;5253010;28;20220;-74
2020/12/03 12:39:38;;;;;;;68.03;30.13;;;0.00;99.90;;;;;;5270570;28;20234;-73
2020/12/03 12:42:10;;;;;;;64.50;30.33;;;0.10;99.90;;;;;;5268866;28;20192;-74
2020/12/03 12:44:41;;;;;;;63.17;28.23;;;0.10;99.90;;;;;;5269978;28;20218;-73
2020/12/03 12:50:59;;;;;;;51.93;25.83;;;0.20;99.90;;;;;;5271141;28;20173;-74
2020/12/03 12:53:34;;;;;;;52.53;24.97;;;0.20;99.90;;;;;;5272141;28;20188;-75
2020/12/03 12:56:05;;;;;;;66.73;26.73;;;0.20;99.90;;;;;;5270154;28;20233;-74
2020/12/03 12:58:37;;;;;;;52.80;25.93;;;0.20;99.90;;;;;;5253644;28;20188;-73
2020/12/03 13:01:09;;;;;;;52.30;24.33;;;0.20;99.90;;;;;;5270546;28;20200;-73
2020/12/03 13:07:26;;;;;;;53.23;23.47;;;0.10;99.90;;;;;;5269347;28;20212;-74
2020/12/03 13:09:57;;;;;;;59.27;26.53;;;0.20;99.90;;;;;;5270631;28;20203;-74
2020/12/03 13:12:29;;;;;;;49.13;24.33;;;0.10;99.90;;;;;;5271204;28;20560;-75
2020/12/03 13:15:00;;;;;;;52.07;25.03;;;0.10;99.90;;;;;;5270099;28;20235;-73
2020/12/03 13:17:32;;;;;;;55.93;25.10;;;0.20;99.90;;;;;;5253571;28;20287;-73
2020/12/03 13:20:03;;;;;;;56.97;25.70;;;0.20;99.90;;;;;;5253271;28;20619;-74
2020/12/03 13:22:35;;;;;;;51.13;24.83;;;0.10;99.90;;;;;;5271012;28;20192;-73
2020/12/03 13:25:06;;;;;;;55.90;25.20;;;0.10;99.90;;;;;;5268761;28;20192;-74
2020/12/03 13:27:38;;;;;;;60.70;25.93;;;0.10;99.90;;;;;;5254064;28;20708;-73
2020/12/03 13:30:10;;;;;;;54.70;24.27;;;0.10;99.90;;;;;;5252933;28;20203;-74
2020/12/03 13:32:41;;;;;;;50.23;24.37;;;0.10;99.90;;;;;;5271102;28;20195;-74
2020/12/03 13:35:13;;;;;;;59.83;27.10;;;0.10;99.90;;;;;;5254716;28;20216;-76
2020/12/03 13:37:44;;;;;;;59.77;26.10;;;0.10;99.90;;;;;;5271330;28;20199;-73
2020/12/03 13:40:30;;;;;;;55.30;25.87;;;0.10;99.90;;;;;;5272553;28;20282;-76
2020/12/03 13:43:03;;;;;;;54.07;25.90;;;0.10;99.90;;;;;;5255791;28;20204;-76
2020/12/03 13:45:35;;;;;;;55.53;27.27;;;0.10;99.90;;;;;;5272642;28;20192;-75
2020/12/03 13:48:06;;;;;;;53.07;26.60;;;0.10;99.90;;;;;;5273155;28;20243;-77
2020/12/03 13:50:38;;;;;;;55.77;26.17;;;0.10;99.90;;;;;;5271380;28;20268;-76
2020/12/03 13:53:09;;;;;;;59.30;25.63;;;0.00;99.90;;;;;;5270067;28;20196;-74
2020/12/03 13:55:41;;;;;;;51.03;24.93;;;0.00;99.90;;;;;;5250546;28;20224;-76
2020/12/03 13:58:12;;;;;;;57.07;27.03;;;0.00;99.90;;;;;;5273513;28;20199;-75
2020/12/03 14:00:44;;;;;;;61.87;27.00;;;0.00;99.90;;;;;;5273705;28;20192;-76
2020/12/03 14:03:16;;;;;;;57.63;25.30;;;0.00;99.90;;;;;;5273246;28;20227;-75
2020/12/03 14:05:48;;;;;;;56.97;26.43;;;0.00;99.90;;;;;;5255264;28;20242;-75
2020/12/03 14:08:20;;;;;;;57.23;26.87;;;0.00;99.90;;;;;;5271748;28;20204;-74
2020/12/03 14:10:52;;;;;;;57.03;26.53;;;0.00;99.90;;;;;;5266451;28;20184;-75
2020/12/03 14:13:23;;;;;;;59.13;26.37;;;0.00;99.90;;;;;;5267753;28;20200;-74
2020/12/03 14:15:55;;;;;;;61.73;27.63;;;0.00;99.90;;;;;;5255421;28;20223;-76
2020/12/03 14:18:26;;;;;;;57.37;27.47;;;0.00;99.90;;;;;;5267589;28;20602;-74
2020/12/03 14:20:58;;;;;;;57.33;27.23;;;0.00;99.90;;;;;;5255987;28;20214;-75
2020/12/03 14:23:30;;;;;;;62.67;28.53;;;-0.10;99.90;;;;;;5274284;28;20192;-75
2020/12/03 14:26:02;;;;;;;59.60;28.40;;;-0.10;99.90;;;;;;5272000;28;20202;-75
2020/12/03 14:28:34;;;;;;;63.33;29.80;;;-0.10;99.90;;;;;;5272241;28;20627;-74
2020/12/03 14:31:05;;;;;;;60.17;28.23;;;-0.10;99.90;;;;;;5270270;28;20221;-76
2020/12/03 14:33:37;;;;;;;59.17;28.20;;;-0.10;99.90;;;;;;5270415;28;20715;-74
2020/12/03 14:36:08;;;;;;;65.50;29.47;;;-0.10;99.90;;;;;;5271553;28;20224;-76
2020/12/03 14:38:40;;;;;;;60.47;28.77;;;-0.10;99.90;;;;;;5270875;28;20630;-74
2020/12/03 14:41:11;;;;;;;65.37;29.93;;;-0.20;99.90;;;;;;5270295;28;20188;-76